Time;durP1;ratioP1;P1;durP2;ratioP2;P2;SDS_P1;SDS_P2;PMS_P1;PMS_P2;Temp;Humidity;BMP_temperature;BMP_pressure;BME280_temperature;BME280_humidity;BME280_pressure;Samples;Min_cycle;Max_cycle;Signal;HPM_P1;HPM_P2
2022/12/13 00:01:17;;;;;;;5.10;3.70;;;;;;;2.72;75.23;98789.66;5034519;28;20029;-57
2022/12/13 00:03:44;;;;;;;5.03;4.20;;;;;;;2.69;74.58;98769.59;5033656;28;20040;-56
2022/12/13 00:06:10;;;;;;;4.63;3.80;;;;;;;2.68;75.28;98774.97;5033713;28;20064;-52
2022/12/13 00:08:37;;;;;;;5.13;4.22;;;;;;;2.72;74.78;98781.75;5034916;28;20025;-50
2022/12/13 00:11:05;;;;;;;5.43;4.10;;;;;;;2.73;74.11;98773.72;5034899;28;20044;-49
2022/12/13 00:13:31;;;;;;;5.20;4.22;;;;;;;2.66;75.22;98788.28;5032521;28;20411;-57
2022/12/13 00:15:59;;;;;;;4.85;4.10;;;;;;;2.66;75.16;98784.78;5033397;28;20044;-58
2022/12/13 00:18:25;;;;;;;5.25;4.28;;;;;;;2.73;74.47;98786.94;5033191;28;20039;-55
2022/12/13 00:20:51;;;;;;;5.28;4.47;;;;;;;2.71;74.86;98799.41;5034250;28;20030;-56
2022/12/13 00:23:16;;;;;;;5.65;4.57;;;;;;;2.67;74.67;98787.34;5033820;28;20033;-57
2022/12/13 00:25:42;;;;;;;4.80;3.92;;;;;;;2.65;74.47;98788.38;5033542;28;20033;-58
2022/12/13 00:28:07;;;;;;;5.55;4.38;;;;;;;2.66;75.29;98790.06;5021880;28;20029;-55
2022/12/13 00:30:34;;;;;;;6.93;4.85;;;;;;;2.68;74.86;98804.03;5024492;28;20037;-58
2022/12/13 00:32:59;;;;;;;5.78;4.90;;;;;;;2.67;75.28;98791.78;5022660;28;20025;-52
2022/12/13 00:35:24;;;;;;;5.53;4.43;;;;;;;2.68;75.01;98789.03;5028559;28;20026;-56
2022/12/13 00:37:50;;;;;;;6.05;4.70;;;;;;;2.65;74.74;98783.97;5032758;28;20030;-57
2022/12/13 00:40:15;;;;;;;6.55;5.28;;;;;;;2.67;75.17;98784.72;5033707;28;20025;-58
2022/12/13 00:42:41;;;;;;;5.75;4.97;;;;;;;2.54;75.43;98766.16;5031866;28;20029;-55
2022/12/13 00:45:08;;;;;;;5.43;4.72;;;;;;;2.71;75.38;98790.63;5033041;28;20027;-54
2022/12/13 00:47:34;;;;;;;5.78;5.07;;;;;;;2.73;75.48;98779.00;5032871;28;20057;-56
2022/12/13 00:50:00;;;;;;;6.22;5.00;;;;;;;2.77;75.08;98792.03;5032239;28;20463;-56
2022/12/13 00:52:26;;;;;;;6.38;5.05;;;;;;;2.67;75.84;98790.00;5033397;28;20040;-58
2022/12/13 00:54:51;;;;;;;6.53;5.25;;;;;;;2.67;75.52;98776.78;5033189;28;20030;-57
2022/12/13 00:57:17;;;;;;;7.05;5.30;;;;;;;2.62;75.91;98768.28;5032358;28;20067;-55
2022/12/13 00:59:42;;;;;;;7.80;4.90;;;;;;;2.73;75.43;98781.66;5033125;28;20367;-57
2022/12/13 01:02:08;;;;;;;6.15;5.03;;;;;;;2.71;76.36;98794.13;5032162;28;20057;-57
2022/12/13 01:04:33;;;;;;;6.40;5.45;;;;;;;2.80;75.10;98787.41;5032952;28;20120;-53
2022/12/13 01:06:58;;;;;;;7.05;4.95;;;;;;;2.76;75.36;98785.03;5032627;28;20057;-54
2022/12/13 01:09:32;;;;;;;7.47;5.40;;;;;;;2.67;75.78;98786.47;5032775;28;20091;-54
2022/12/13 01:12:04;;;;;;;7.80;5.75;;;;;;;2.82;76.03;98795.22;5033043;28;20028;-52
2022/12/13 01:14:30;;;;;;;6.75;5.47;;;;;;;2.75;76.03;98784.19;5032805;28;20045;-55
2022/12/13 01:16:56;;;;;;;6.63;5.50;;;;;;;2.81;75.46;98765.31;5032474;28;20033;-58
2022/12/13 01:19:26;;;;;;;7.35;5.25;;;;;;;2.84;76.11;98785.38;5032733;28;20080;-54
2022/12/13 01:22:01;;;;;;;6.75;5.38;;;;;;;2.81;75.66;98762.66;5032751;28;20083;-52
2022/12/13 01:24:27;;;;;;;7.18;5.68;;;;;;;2.84;75.42;98773.03;5028851;28;20137;-60
2022/12/13 01:26:53;;;;;;;6.45;5.07;;;;;;;2.83;75.16;98773.13;5031898;28;20456;-56
2022/12/13 01:29:20;;;;;;;6.70;5.35;;;;;;;2.70;75.87;98750.16;5032019;28;20034;-54
2022/12/13 01:31:46;;;;;;;7.57;5.97;;;;;;;2.67;75.57;98776.78;5032042;28;20403;-56
2022/12/13 01:34:13;;;;;;;6.50;5.72;;;;;;;2.76;76.44;98775.31;5032034;28;20037;-58
2022/12/13 01:36:40;;;;;;;7.13;5.40;;;;;;;2.77;76.11;98771.72;5032704;28;20029;-56
2022/12/13 01:39:08;;;;;;;7.65;5.80;;;;;;;2.82;75.52;98774.06;5032299;28;20037;-59
2022/12/13 01:41:34;;;;;;;6.57;5.50;;;;;;;2.79;76.34;98758.41;5031765;28;20025;-60
2022/12/13 01:44:02;;;;;;;7.28;5.38;;;;;;;2.73;76.50;98764.94;5032236;28;20044;-57
2022/12/13 01:46:30;;;;;;;6.95;5.53;;;;;;;2.81;76.32;98770.59;5031780;28;20360;-58
2022/12/13 01:48:55;;;;;;;7.13;5.70;;;;;;;2.82;76.48;98785.50;5032019;28;20045;-58
2022/12/13 01:51:26;;;;;;;7.35;5.45;;;;;;;2.90;75.85;98776.22;5031471;28;20094;-59
2022/12/13 01:53:54;;;;;;;6.68;5.65;;;;;;;2.91;75.27;98789.34;5032123;28;20029;-58
2022/12/13 01:56:28;;;;;;;7.07;5.15;;;;;;;2.89;75.78;98779.81;5032564;28;20042;-58
2022/12/13 01:58:55;;;;;;;7.63;6.13;;;;;;;2.85;75.73;98784.44;5031772;28;20045;-58
2022/12/13 02:01:21;;;;;;;6.28;5.60;;;;;;;2.79;76.31;98788.34;5031647;28;20134;-59
2022/12/13 02:03:46;;;;;;;8.70;6.38;;;;;;;2.68;76.91;98778.47;5032128;28;20084;-57
2022/12/13 02:06:18;;;;;;;7.90;6.03;;;;;;;2.83;76.81;98791.63;5032203;28;20044;-57
2022/12/13 02:08:45;;;;;;;8.48;5.95;;;;;;;2.81;77.06;98799.66;5032047;28;20029;-59
2022/12/13 02:11:12;;;;;;;7.72;6.35;;;;;;;2.84;76.77;98788.03;5031558;28;20052;-57
2022/12/13 02:13:38;;;;;;;8.32;5.90;;;;;;;2.83;76.11;98767.81;5032046;28;20124;-57
2022/12/13 02:16:27;;;;;;;7.30;5.95;;;;;;;2.95;76.59;98784.69;5032051;28;20145;-57
2022/12/13 02:19:07;;;;;;;10.45;6.47;;;;;;;2.98;76.04;98784.47;5031767;28;20049;-59
2022/12/13 02:22:05;;;;;;;10.10;6.65;;;;;;;2.96;76.18;98781.94;5031669;28;20079;-58
2022/12/13 02:24:39;;;;;;;7.43;6.22;;;;;;;2.96;76.40;98778.44;5012788;28;20435;-58
2022/12/13 02:27:09;;;;;;;7.53;5.65;;;;;;;3.00;75.87;98772.00;5012362;28;20314;-59
2022/12/13 02:29:55;;;;;;;8.90;6.32;;;;;;;2.97;76.47;98786.28;5011981;28;20049;-57
2022/12/13 02:32:30;;;;;;;;;;;;;;;3.22;76.43;98773.22;5012272;28;20085;-57
2022/12/13 02:35:09;;;;;;;8.10;6.13;;;;;;;3.03;75.99;98782.41;5012309;28;20268;-60
2022/12/13 02:37:49;;;;;;;7.75;6.22;;;;;;;2.98;76.23;98780.03;5019843;28;20117;-57
2022/12/13 02:40:25;;;;;;;9.50;6.55;;;;;;;3.01;76.19;98779.84;5031681;28;20037;-60
2022/12/13 02:43:12;;;;;;;8.85;6.18;;;;;;;3.00;76.56;98770.22;5031672;28;20340;-57
2022/12/13 02:45:44;;;;;;;7.70;6.03;;;;;;;3.00;76.24;98788.72;5031520;28;20056;-58
2022/12/13 02:48:13;;;;;;;11.23;6.75;;;;;;;3.01;76.53;98778.97;5011884;28;20125;-58
2022/12/13 02:50:40;;;;;;;7.68;5.97;;;;;;;3.05;76.00;98784.91;5011754;28;20033;-59
2022/12/13 02:53:08;;;;;;;8.02;5.40;;;;;;;3.03;75.61;98782.41;5043998;28;20037;-58
2022/12/13 02:55:37;;;;;;;8.65;6.40;;;;;;;2.95;75.70;98769.69;5011913;28;20026;-60
2022/12/13 02:58:02;;;;;;;7.70;5.68;;;;;;;3.01;76.52;98784.25;5012094;28;20030;-58
2022/12/13 03:00:40;;;;;;;6.60;5.38;;;;;;;3.09;75.38;98797.00;5014674;28;20036;-58
2022/12/13 03:03:18;;;;;;;7.15;5.57;;;;;;;3.07;75.62;98791.81;5034907;28;20040;-57
2022/12/13 03:09:31;;;;;;;6.88;5.38;;;;;;;3.18;75.89;98791.09;5035212;28;20103;-58
2022/12/13 03:14:58;;;;;;;6.25;5.05;;;;;;;3.09;75.31;98794.34;5014501;28;20460;-55
2022/12/13 03:17:25;;;;;;;6.72;5.47;;;;;;;2.97;75.03;98796.00;5015072;28;20025;-59
2022/12/13 03:19:52;;;;;;;7.53;6.20;;;;;;;2.87;75.51;98785.19;5014656;28;20086;-54
2022/12/13 03:22:18;;;;;;;6.18;5.40;;;;;;;2.88;75.36;98789.50;5015168;28;20116;-55
2022/12/13 03:24:44;;;;;;;7.18;5.35;;;;;;;2.71;75.81;98753.63;5019342;28;20021;-54
2022/12/13 03:27:10;;;;;;;6.22;5.38;;;;;;;2.94;75.92;98804.13;5034589;28;20040;-60
2022/12/13 03:29:35;;;;;;;6.32;4.75;;;;;;;2.93;75.10;98803.31;5034557;28;20433;-56
2022/12/13 03:32:00;;;;;;;6.55;5.00;;;;;;;2.91;75.72;98815.78;5035199;28;20425;-60
2022/12/13 03:34:26;;;;;;;6.20;4.90;;;;;;;2.95;75.50;98804.06;5034385;28;20376;-58
2022/12/13 03:36:52;;;;;;;6.15;4.90;;;;;;;2.87;75.47;98788.69;5034293;28;20045;-56
2022/12/13 03:39:18;;;;;;;6.28;5.10;;;;;;;2.85;75.13;98810.88;5034557;28;20497;-54
2022/12/13 03:41:44;;;;;;;6.68;5.35;;;;;;;2.81;75.20;98796.16;5034759;28;20415;-56
2022/12/13 03:44:09;;;;;;;6.30;4.90;;;;;;;2.79;75.34;98796.28;5034460;28;20029;-58
2022/12/13 03:46:34;;;;;;;5.13;4.28;;;;;;;2.66;75.23;98768.94;5034557;28;20029;-59
2022/12/13 03:49:00;;;;;;;7.13;4.80;;;;;;;2.88;75.07;98800.09;5034334;28;20052;-57
2022/12/13 03:51:25;;;;;;;7.38;4.43;;;;;;;2.85;74.76;98803.81;5034383;28;20036;-58
2022/12/13 03:53:51;;;;;;;6.22;4.78;;;;;;;2.80;75.19;98797.09;5034388;28;20030;-59
2022/12/13 03:56:16;;;;;;;6.03;4.95;;;;;;;2.81;75.41;98788.22;5032866;28;20036;-58
2022/12/13 03:58:42;;;;;;;5.40;4.50;;;;;;;2.77;75.12;98781.44;5033510;28;20033;-59
2022/12/13 04:01:13;;;;;;;7.43;5.43;;;;;;;2.54;75.41;98745.00;5034255;28;20108;-59
2022/12/13 04:03:40;;;;;;;7.43;4.88;;;;;;;2.76;75.48;98796.44;5034125;28;20060;-59
2022/12/13 04:06:07;;;;;;;6.35;5.28;;;;;;;2.82;75.23;98796.06;5033896;28;20041;-57
2022/12/13 04:08:34;;;;;;;5.80;5.05;;;;;;;2.78;75.16;98799.88;5033998;28;20026;-57
2022/12/13 04:13:31;;;;;;;6.38;4.72;;;;;;;2.78;75.12;98794.59;5034127;28;20045;-56
2022/12/13 04:13:44;;;;;;;6.72;4.68;;;;;;;2.81;74.61;98804.09;5034025;28;20033;-56
2022/12/13 04:16:10;;;;;;;6.22;4.90;;;;;;;2.78;74.49;98799.00;5033902;28;20034;-59
2022/12/13 04:18:35;;;;;;;5.40;4.43;;;;;;;2.80;75.08;98811.19;5034286;28;20475;-56
2022/12/13 04:21:01;;;;;;;6.03;4.75;;;;;;;2.78;74.71;98788.44;5034067;28;20037;-57
2022/12/13 04:23:26;;;;;;;6.03;5.28;;;;;;;2.73;75.01;98794.88;5033647;28;20038;-55
2022/12/13 04:25:51;;;;;;;6.65;5.22;;;;;;;2.77;75.48;98802.59;5033628;28;20388;-57
2022/12/13 04:28:17;;;;;;;5.82;4.90;;;;;;;2.77;75.35;98799.97;5033648;28;20025;-57
2022/12/13 04:30:42;;;;;;;9.25;5.25;;;;;;;2.75;75.88;98805.31;5033844;28;20029;-58
2022/12/13 04:33:08;;;;;;;6.15;5.22;;;;;;;2.73;75.51;98810.72;5033120;28;20029;-57
2022/12/13 04:35:33;;;;;;;7.38;5.55;;;;;;;2.75;75.55;98809.78;5033445;28;20116;-59
2022/12/13 04:37:59;;;;;;;7.65;5.68;;;;;;;2.10;75.34;98703.81;5032804;28;20737;-58
2022/12/13 04:40:24;;;;;;;7.10;5.20;;;;;;;2.82;74.94;98816.34;5032761;28;20037;-56
2022/12/13 04:42:50;;;;;;;8.00;5.93;;;;;;;2.75;75.66;98820.34;5033307;28;20030;-57
2022/12/13 04:45:16;;;;;;;8.27;5.63;;;;;;;2.65;75.61;98783.09;5032797;28;20083;-55
2022/12/13 04:47:42;;;;;;;8.10;5.95;;;;;;;2.42;75.54;98759.88;5031731;28;20052;-58
2022/12/13 04:50:09;;;;;;;6.70;5.47;;;;;;;2.75;75.61;98800.03;5032123;28;20370;-59
2022/12/13 04:52:34;;;;;;;7.43;5.93;;;;;;;2.80;75.15;98797.09;5031676;28;20041;-60
2022/12/13 04:55:00;;;;;;;7.53;6.13;;;;;;;2.72;75.96;98800.25;5031858;28;20038;-58
2022/12/13 04:57:25;;;;;;;8.15;5.80;;;;;;;2.79;75.81;98812.13;5031426;28;20544;-58
2022/12/13 04:59:51;;;;;;;7.72;5.60;;;;;;;2.83;76.53;98804.84;5032503;28;20113;-60
2022/12/13 05:02:16;;;;;;;7.15;5.43;;;;;;;2.88;76.09;98810.66;5032771;28;20071;-62
2022/12/13 05:04:44;;;;;;;7.05;5.18;;;;;;;2.87;75.80;98820.41;5032717;28;20091;-57
2022/12/13 05:07:09;;;;;;;6.88;5.10;;;;;;;2.91;75.95;98821.06;5031583;28;20328;-58
2022/12/13 05:09:35;;;;;;;8.35;5.35;;;;;;;2.92;76.42;98825.41;5032723;28;20112;-58
2022/12/13 05:12:00;;;;;;;8.60;5.63;;;;;;;2.89;75.82;98817.66;5032607;28;20212;-58
2022/12/13 05:14:26;;;;;;;6.93;5.40;;;;;;;2.97;75.82;98814.50;5032279;28;20118;-67
2022/12/13 05:16:52;;;;;;;5.57;4.75;;;;;;;2.93;75.83;98813.88;5032380;28;20033;-64
2022/12/13 05:19:17;;;;;;;7.93;5.65;;;;;;;3.01;75.01;98819.50;5033097;28;20021;-60
2022/12/13 05:21:43;;;;;;;6.93;5.47;;;;;;;2.73;75.62;98757.88;5031660;28;20033;-60
2022/12/13 05:24:09;;;;;;;7.10;5.38;;;;;;;3.03;75.52;98810.63;5032505;28;20048;-52
2022/12/13 05:26:35;;;;;;;6.78;5.63;;;;;;;2.98;75.44;98814.41;5032175;28;20021;-56
2022/12/13 05:29:00;;;;;;;6.80;5.70;;;;;;;2.97;75.93;98814.50;5032587;28;20029;-56
2022/12/13 05:31:26;;;;;;;6.57;5.43;;;;;;;2.91;75.59;98799.06;5032118;28;20340;-55
2022/12/13 05:33:51;;;;;;;7.35;5.50;;;;;;;2.98;76.08;98819.72;5027534;28;20084;-61
2022/12/13 05:36:17;;;;;;;8.02;6.10;;;;;;;2.97;75.85;98836.53;5022154;28;20042;-60
2022/12/13 05:38:42;;;;;;;7.30;5.22;;;;;;;3.02;75.58;98815.09;5021288;28;20029;-62
2022/12/13 05:41:16;;;;;;;8.68;5.97;;;;;;;3.00;76.31;98825.75;5032113;28;20103;-59
2022/12/13 05:43:41;;;;;;;7.28;5.32;;;;;;;3.02;76.07;98833.59;5032358;28;20365;-58
2022/12/13 05:46:06;;;;;;;7.50;5.70;;;;;;;2.87;75.36;98788.69;5032195;28;20053;-60
2022/12/13 05:48:32;;;;;;;6.90;5.80;;;;;;;3.11;75.20;98834.75;5032338;28;20120;-61
2022/12/13 05:50:57;;;;;;;6.93;5.25;;;;;;;3.17;75.22;98834.38;5031675;28;20077;-60
2022/12/13 05:53:23;;;;;;;6.93;5.88;;;;;;;3.18;75.58;98822.84;5030778;28;20095;-60
2022/12/13 05:55:48;;;;;;;7.75;5.78;;;;;;;3.09;75.68;98818.16;5032520;28;20108;-60
2022/12/13 05:58:15;;;;;;;9.27;5.85;;;;;;;3.23;75.05;98823.38;5032407;28;20038;-61
2022/12/13 06:00:41;;;;;;;8.88;6.22;;;;;;;3.12;75.22;98818.78;5031947;28;20036;-60
2022/12/13 06:03:07;;;;;;;9.48;6.00;;;;;;;3.14;75.75;98827.47;5031750;28;20076;-57
2022/12/13 06:05:32;;;;;;;12.02;6.38;;;;;;;3.19;75.55;98819.25;5032345;28;20049;-59
2022/12/13 06:07:59;;;;;;;9.65;6.35;;;;;;;3.20;75.49;98828.88;5032235;28;20044;-58
2022/12/13 06:10:26;;;;;;;8.32;5.90;;;;;;;3.24;75.41;98832.16;5031783;28;20124;-59
2022/12/13 06:12:51;;;;;;;8.30;6.53;;;;;;;3.25;75.41;98820.63;5032125;28;20128;-59
2022/12/13 06:15:17;;;;;;;9.20;6.65;;;;;;;3.26;75.48;98823.16;5032577;28;20068;-59
2022/12/13 06:17:42;;;;;;;8.98;5.95;;;;;;;3.31;75.61;98830.81;5032862;28;20407;-60
2022/12/13 06:20:08;;;;;;;10.13;6.20;;;;;;;3.30;75.39;98829.13;5032123;28;20152;-62
2022/12/13 06:22:33;;;;;;;11.45;7.05;;;;;;;3.38;75.25;98823.31;5014371;28;20036;-61
2022/12/13 06:25:00;;;;;;;8.15;6.32;;;;;;;3.32;75.02;98819.28;5031540;28;20029;-60
2022/12/13 06:27:26;;;;;;;10.07;7.07;;;;;;;3.40;74.56;98832.00;5032122;28;20467;-59
2022/12/13 06:29:51;;;;;;;10.80;6.35;;;;;;;3.40;75.25;98822.25;5029191;28;20038;-63
2022/12/13 06:32:17;;;;;;;9.88;6.55;;;;;;;3.44;74.92;98823.72;5031467;28;20410;-61
2022/12/13 06:34:42;;;;;;;11.55;6.40;;;;;;;3.46;74.70;98826.28;5033100;28;20049;-59
2022/12/13 06:37:11;;;;;;;8.70;6.75;;;;;;;3.48;75.52;98839.41;5035079;28;20574;-61
2022/12/13 06:39:37;;;;;;;9.38;7.03;;;;;;;3.44;74.81;98825.53;5034690;28;20048;-62
2022/12/13 06:42:05;;;;;;;8.82;7.03;;;;;;;3.49;75.31;98831.38;5034616;28;20029;-60
2022/12/13 06:44:31;;;;;;;11.30;6.95;;;;;;;3.51;74.75;98840.06;5035373;28;20030;-58
2022/12/13 06:46:57;;;;;;;9.20;6.88;;;;;;;3.58;74.78;98851.06;5035176;28;20037;-61
2022/12/13 06:49:23;;;;;;;9.80;7.03;;;;;;;3.39;74.58;98823.19;5034916;28;20136;-60
2022/12/13 06:51:48;;;;;;;9.85;6.97;;;;;;;3.51;75.02;98861.22;5035153;28;20120;-60
2022/12/13 06:54:14;;;;;;;8.57;6.93;;;;;;;3.52;74.64;98854.97;5035214;28;20022;-61
2022/12/13 06:56:39;;;;;;;8.68;6.60;;;;;;;3.57;74.73;98871.38;5035304;28;20121;-61
2022/12/13 06:59:04;;;;;;;10.40;7.47;;;;;;;3.57;74.34;98875.84;5035328;28;20468;-60
2022/12/13 07:01:30;;;;;;;12.82;7.03;;;;;;;3.51;75.06;98885.03;5035183;28;20034;-60
2022/12/13 07:03:56;;;;;;;10.20;6.70;;;;;;;3.57;74.83;98897.84;5035084;28;20041;-60
2022/12/13 07:06:23;;;;;;;12.15;7.32;;;;;;;3.59;74.59;98889.81;5035553;28;20352;-59
2022/12/13 07:08:54;;;;;;;9.70;7.00;;;;;;;3.64;74.36;98894.81;5034581;28;20041;-61
2022/12/13 07:11:25;;;;;;;9.50;7.18;;;;;;;3.64;74.97;98895.66;5033941;28;20468;-58
2022/12/13 07:13:52;;;;;;;10.05;7.57;;;;;;;3.65;74.80;98901.81;5035197;28;20041;-60
2022/12/13 07:16:18;;;;;;;8.90;6.90;;;;;;;3.65;74.71;98905.28;5034515;28;20026;-58
2022/12/13 07:18:44;;;;;;;11.10;6.93;;;;;;;3.67;74.49;98897.25;5031501;28;20029;-60
2022/12/13 07:21:12;;;;;;;8.38;6.75;;;;;;;3.69;74.74;98895.34;5031072;28;20140;-63
2022/12/13 07:23:39;;;;;;;12.73;6.72;;;;;;;3.52;74.57;98862.09;5028835;28;20033;-63
2022/12/13 07:26:06;;;;;;;12.48;7.20;;;;;;;3.76;74.01;98901.94;5026945;28;20049;-56
2022/12/13 07:28:32;;;;;;;12.60;7.50;;;;;;;3.77;74.94;98908.91;5020518;28;20038;-61
2022/12/13 07:31:05;;;;;;;10.07;6.97;;;;;;;3.81;74.36;98912.22;5028070;28;21385;-60
2022/12/13 07:33:31;;;;;;;14.60;7.50;;;;;;;3.77;74.15;98913.38;5032944;28;20345;-63
2022/12/13 07:36:18;;;;;;;11.10;6.93;;;;;;;3.68;74.88;98883.06;5033446;28;20017;-61
2022/12/13 07:38:43;;;;;;;10.10;7.10;;;;;;;3.79;75.12;98911.47;5027271;28;20048;-61
2022/12/13 07:41:09;;;;;;;9.13;6.80;;;;;;;3.82;74.80;98913.91;5025513;28;20448;-65
2022/12/13 07:43:36;;;;;;;9.80;6.88;;;;;;;3.84;74.97;98927.91;5031300;28;20061;-67
2022/12/13 07:46:04;;;;;;;8.90;6.40;;;;;;;3.91;74.14;98917.75;5031886;28;20033;-60
2022/12/13 07:48:29;;;;;;;8.98;6.45;;;;;;;3.85;74.30;98924.28;5029094;28;20052;-58
2022/12/13 07:51:01;;;;;;;9.25;6.50;;;;;;;3.96;73.86;98918.28;5031310;28;20046;-58
2022/12/13 07:53:27;;;;;;;10.25;6.45;;;;;;;3.86;74.32;98933.94;5030435;28;20029;-59
2022/12/13 07:55:52;;;;;;;9.68;6.53;;;;;;;3.85;74.34;98921.66;5021144;28;20034;-58
2022/12/13 07:58:18;;;;;;;9.77;6.65;;;;;;;3.82;74.95;98916.56;5030402;28;20428;-57
2022/12/13 08:00:45;;;;;;;9.00;6.22;;;;;;;3.88;74.30;98910.84;5023559;28;20462;-60
2022/12/13 08:03:10;;;;;;;9.65;6.35;;;;;;;3.88;73.93;98919.66;5024355;28;20475;-58
2022/12/13 08:05:36;;;;;;;9.02;6.03;;;;;;;3.89;74.56;98923.13;5030743;28;20069;-59
2022/12/13 08:08:04;;;;;;;10.50;6.40;;;;;;;3.88;74.82;98918.78;5032029;28;20419;-60
2022/12/13 08:10:30;;;;;;;8.70;6.82;;;;;;;3.87;74.73;98910.00;5033643;28;20045;-60
2022/12/13 08:12:57;;;;;;;7.38;6.07;;;;;;;3.90;75.31;98921.34;5020691;28;20033;-61
2022/12/13 08:15:23;;;;;;;9.02;6.28;;;;;;;3.70;74.61;98891.75;5029761;28;20030;-61
2022/12/13 08:17:48;;;;;;;8.85;5.97;;;;;;;3.92;74.65;98927.38;5033296;28;20055;-59
2022/12/13 08:20:14;;;;;;;9.50;6.55;;;;;;;3.94;74.83;98931.59;5032482;28;20523;-63
2022/12/13 08:22:39;;;;;;;8.93;5.90;;;;;;;3.91;74.63;98930.97;5021826;28;20353;-62
2022/12/13 08:25:06;;;;;;;7.47;5.85;;;;;;;3.88;74.27;98929.38;5032900;28;20033;-69
2022/12/13 08:27:31;;;;;;;8.45;5.47;;;;;;;3.96;74.58;98929.69;5030858;28;20045;-69
2022/12/13 08:29:57;;;;;;;7.60;5.68;;;;;;;3.88;74.10;98929.38;5031344;28;20045;-69
2022/12/13 08:32:22;;;;;;;9.50;5.60;;;;;;;3.84;75.15;98928.72;5032373;28;20040;-67
2022/12/13 08:34:48;;;;;;;6.88;4.65;;;;;;;3.91;75.50;98944.22;5023739;28;20030;-69
2022/12/13 08:37:14;;;;;;;5.78;4.85;;;;;;;3.93;74.68;98939.66;5054036;28;20376;-65
2022/12/13 08:39:39;;;;;;;8.82;5.35;;;;;;;3.97;74.50;98951.75;5028901;28;20037;-56
2022/12/13 08:42:09;;;;;;;5.88;4.88;;;;;;;3.99;74.73;98944.53;5029248;28;20048;-58
2022/12/13 08:44:35;;;;;;;7.68;5.18;;;;;;;4.00;74.22;98951.53;5031607;28;20376;-58
2022/12/13 08:47:00;;;;;;;8.43;4.95;;;;;;;3.97;74.22;98957.88;5032773;28;20041;-56
2022/12/13 08:49:26;;;;;;;7.10;5.32;;;;;;;3.92;74.66;98953.88;5032427;28;20057;-53
2022/12/13 08:51:53;;;;;;;8.25;5.22;;;;;;;3.90;74.84;98959.25;5032016;28;20057;-57
2022/12/13 08:54:18;;;;;;;8.00;5.28;;;;;;;3.93;75.48;98958.22;5032536;28;20052;-56
2022/12/13 08:56:44;;;;;;;8.25;5.13;;;;;;;3.96;75.23;98961.47;5031071;28;20492;-56
2022/12/13 08:59:09;;;;;;;7.40;5.75;;;;;;;4.02;74.95;98970.81;5031245;28;20033;-57
2022/12/13 09:01:34;;;;;;;7.88;5.80;;;;;;;3.95;74.75;98966.91;5032600;28;20100;-59
2022/12/13 09:04:00;;;;;;;10.00;5.30;;;;;;;3.93;75.11;98966.16;5021948;28;20030;-63
2022/12/13 09:06:25;;;;;;;7.93;5.63;;;;;;;3.79;74.50;98930.84;5029695;28;20076;-61
2022/12/13 09:08:54;;;;;;;9.07;5.82;;;;;;;3.98;74.85;98985.22;5032970;28;20506;-62
2022/12/13 09:11:20;;;;;;;10.32;5.70;;;;;;;3.91;74.78;98983.94;5032868;28;20128;-60
2022/12/13 09:13:46;;;;;;;10.07;4.93;;;;;;;3.88;74.86;98985.84;5032001;28;20450;-58
2022/12/13 09:16:14;;;;;;;5.55;4.38;;;;;;;3.88;74.46;98980.56;5032424;28;20073;-62
2022/12/13 09:18:40;;;;;;;5.32;4.10;;;;;;;3.91;73.70;98997.19;5033043;28;20043;-61
2022/12/13 09:21:10;;;;;;;6.15;3.72;;;;;;;3.88;74.48;98988.50;5032489;28;20033;-60
2022/12/13 09:23:36;;;;;;;4.70;2.88;;;;;;;3.83;73.88;98995.03;5032397;28;20478;-62
2022/12/13 09:26:02;;;;;;;6.20;2.95;;;;;;;3.84;73.21;98992.28;5032850;28;20037;-61
2022/12/13 09:28:28;;;;;;;4.72;2.90;;;;;;;3.85;73.74;99001.91;5022535;28;20091;-61
2022/12/13 09:30:55;;;;;;;3.58;2.60;;;;;;;3.86;73.46;99014.25;5012668;28;20045;-60
2022/12/13 09:33:21;;;;;;;4.10;2.42;;;;;;;3.84;72.87;99005.50;5012663;28;20036;-60
2022/12/13 09:35:46;;;;;;;4.35;2.10;;;;;;;3.83;73.10;99000.34;5013233;28;20413;-59
2022/12/13 09:38:12;;;;;;;3.25;1.98;;;;;;;3.87;72.51;99009.78;5012880;28;20041;-61
2022/12/13 09:40:39;;;;;;;3.90;1.92;;;;;;;3.86;73.00;99003.66;5012458;28;20042;-60
2022/12/13 09:43:06;;;;;;;4.10;2.50;;;;;;;3.88;72.47;99012.34;5011688;28;20119;-61
2022/12/13 09:45:33;;;;;;;5.53;2.63;;;;;;;3.92;71.70;99012.97;5012936;28;20069;-60
2022/12/13 09:48:00;;;;;;;4.30;2.15;;;;;;;3.87;71.49;99001.84;5012684;28;20057;-61
2022/12/13 09:50:31;;;;;;;3.92;1.80;;;;;;;3.92;71.91;99004.19;5012575;28;20046;-63
2022/12/13 09:52:58;;;;;;;2.95;1.77;;;;;;;3.87;71.63;99015.94;5011897;28;20037;-61
2022/12/13 09:55:36;;;;;;;1.80;1.27;;;;;;;3.89;71.64;99015.81;5012215;28;20127;-61
2022/12/13 09:58:33;;;;;;;3.60;1.90;;;;;;;3.81;71.19;98995.13;5012242;28;20462;-61
2022/12/13 10:00:58;;;;;;;;;;;;;;;4.16;72.24;99004.31;5012146;28;20042;-61
2022/12/13 10:03:24;;;;;;;;;;;;;;;4.26;71.80;99012.50;5012542;28;19914;-61
2022/12/13 10:05:57;;;;;;;7.80;2.90;;;;;;;4.07;71.46;99016.38;5012960;28;20007;-61
2022/12/13 10:08:36;;;;;;;6.82;3.15;;;;;;;3.98;70.98;99027.59;5013900;28;20042;-60
2022/12/13 10:11:02;;;;;;;9.23;4.32;;;;;;;3.91;71.62;99028.97;5016090;28;20334;-62
2022/12/13 10:13:44;;;;;;;6.35;4.07;;;;;;;3.91;71.78;99023.69;5015834;28;20092;-61
2022/12/13 10:16:42;;;;;;;8.95;4.43;;;;;;;3.87;71.94;99023.88;5016826;28;20029;-61
2022/12/13 10:19:34;;;;;;;9.07;4.85;;;;;;;3.89;71.69;99034.34;5015523;28;20476;-60
2022/12/13 10:22:01;;;;;;;8.75;4.50;;;;;;;3.79;72.14;99036.75;5015446;28;20065;-60
2022/12/13 10:24:31;;;;;;;9.98;5.32;;;;;;;3.77;71.41;99041.31;5019320;28;20029;-60
2022/12/13 10:27:08;;;;;;;8.95;5.15;;;;;;;3.70;71.48;99045.31;5035615;28;20043;-60
2022/12/13 10:29:55;;;;;;;12.52;5.90;;;;;;;3.79;71.88;99043.88;5023945;28;20463;-63
2022/12/13 10:32:21;;;;;;;7.82;4.63;;;;;;;3.61;71.21;99053.81;5030088;28;20033;-60
2022/12/13 10:34:47;;;;;;;11.25;5.60;;;;;;;3.55;71.64;99050.63;5029865;28;20030;-61
2022/12/13 10:37:30;;;;;;;10.13;5.35;;;;;;;3.58;71.93;99047.78;5033985;28;20037;-60
2022/12/13 10:39:57;;;;;;;9.43;5.80;;;;;;;3.51;71.06;99051.78;5034190;28;20041;-60
2022/12/13 10:42:22;;;;;;;15.63;6.80;;;;;;;3.49;71.13;99066.91;5035754;28;20404;-61
2022/12/13 10:44:48;;;;;;;11.30;6.85;;;;;;;3.47;71.18;99070.59;5029520;28;20018;-60
2022/12/13 10:47:20;;;;;;;12.82;6.82;;;;;;;3.44;70.76;99067.19;5035118;28;20398;-61
2022/12/13 10:49:48;;;;;;;9.85;6.63;;;;;;;3.40;70.44;99062.22;5035361;28;20045;-61
2022/12/13 10:52:30;;;;;;;10.95;6.85;;;;;;;3.46;71.33;99072.41;5035171;28;20076;-60
2022/12/13 10:55:01;;;;;;;10.30;6.85;;;;;;;3.38;70.76;99066.75;5034295;28;20033;-61
2022/12/13 10:57:29;;;;;;;13.02;6.63;;;;;;;3.31;70.31;99066.28;5035032;28;20456;-62
2022/12/13 10:59:54;;;;;;;10.98;6.57;;;;;;;3.24;70.57;99073.75;5034452;28;20092;-59
2022/12/13 11:02:36;;;;;;;9.93;7.00;;;;;;;3.34;70.68;99071.38;5034706;28;20095;-62
2022/12/13 11:05:22;;;;;;;9.07;6.00;;;;;;;3.34;71.07;99062.56;5034480;28;20055;-60
2022/12/13 11:07:48;;;;;;;10.50;6.47;;;;;;;3.24;70.99;99072.88;5034349;28;20121;-59
2022/12/13 11:10:19;;;;;;;11.32;6.82;;;;;;;3.26;70.47;99071.84;5035136;28;20025;-61
2022/12/13 11:12:45;;;;;;;10.80;6.25;;;;;;;3.23;70.46;99077.34;5034057;28;20029;-61
2022/12/13 11:15:19;;;;;;;11.70;6.60;;;;;;;3.30;70.58;99081.28;5034577;28;20040;-61
2022/12/13 11:17:52;;;;;;;15.68;6.97;;;;;;;3.30;70.38;99083.09;5034764;28;20116;-60
2022/12/13 11:20:24;;;;;;;10.98;6.93;;;;;;;3.27;70.56;99086.78;5032993;28;20063;-62
2022/12/13 11:23:01;;;;;;;14.48;6.70;;;;;;;3.26;70.47;99090.38;5034068;28;20119;-59
2022/12/13 11:25:36;;;;;;;12.57;7.07;;;;;;;3.29;70.28;99103.41;5034384;28;20170;-59
2022/12/13 11:28:09;;;;;;;16.92;7.78;;;;;;;3.27;70.65;99102.66;5033558;28;20021;-61
2022/12/13 11:30:44;;;;;;;11.05;7.53;;;;;;;3.22;70.58;99115.31;5033727;28;20042;-61
2022/12/13 11:33:16;;;;;;;12.32;6.43;;;;;;;3.16;70.95;99108.59;5034712;28;20033;-60
2022/12/13 11:36:11;;;;;;;12.23;7.53;;;;;;;3.20;70.59;99106.63;5033881;28;20042;-61
2022/12/13 11:39:05;;;;;;;14.63;8.15;;;;;;;3.27;70.38;99123.81;5033420;28;20418;-59
2022/12/13 11:42:07;;;;;;;14.13;8.95;;;;;;;3.16;70.71;99127.13;5034188;28;20026;-62
2022/12/13 11:44:39;;;;;;;17.67;9.52;;;;;;;3.09;70.29;99135.53;5032794;28;20619;-58
2022/12/13 11:47:13;;;;;;;12.48;7.97;;;;;;;3.01;70.54;99128.91;5032426;28;20034;-57
2022/12/13 11:49:40;;;;;;;15.13;8.90;;;;;;;2.95;70.74;99124.00;5034224;28;20447;-58
2022/12/13 11:52:26;;;;;;;12.93;9.50;;;;;;;3.00;70.47;99127.22;5034467;28;20045;-60
2022/12/13 11:55:02;;;;;;;16.27;9.15;;;;;;;2.96;70.31;99124.84;5033498;28;20452;-61